createdAt,value
2017-05-28T00:00:37.043Z,5.96
2017-05-28T00:03:06.074Z,6.24
2017-05-28T00:05:35.158Z,5.38
2017-05-28T00:08:10.402Z,6.40
2017-05-28T00:13:40.835Z,6.50
2017-05-28T00:16:09.870Z,5.58
2017-05-28T00:18:38.895Z,6.10
2017-05-28T00:21:09.000Z,8.50
2017-05-28T00:23:38.024Z,7.08
2017-05-28T00:26:07.069Z,6.26
2017-05-28T00:28:36.137Z,6.06
2017-05-28T00:31:05.187Z,7.22
2017-05-28T00:33:34.270Z,6.02
2017-05-28T00:36:03.304Z,6.58
2017-05-28T00:38:32.324Z,6.48
2017-05-28T00:41:01.404Z,6.78
2017-05-28T00:43:30.423Z,7.20
2017-05-28T00:45:59.460Z,6.24
2017-05-28T00:51:12.988Z,7.02
2017-05-28T00:53:42.010Z,6.28
2017-05-28T00:56:11.064Z,7.26
2017-05-28T00:58:40.174Z,6.14
2017-05-28T01:01:09.206Z,6.02
2017-05-28T01:03:38.237Z,6.50
2017-05-28T01:09:08.137Z,7.30
2017-05-28T01:11:37.186Z,7.02
2017-05-28T01:14:06.208Z,6.70
2017-05-28T01:16:35.253Z,6.38
2017-05-28T01:19:04.286Z,6.50
2017-05-28T01:21:33.385Z,6.84
2017-05-28T01:24:02.432Z,6.50
2017-05-28T01:26:31.475Z,6.88
2017-05-28T01:31:34.639Z,6.48
2017-05-28T01:37:05.153Z,7.26
2017-05-28T01:39:34.157Z,7.54
2017-05-28T01:42:03.175Z,7.40
2017-05-28T01:44:32.242Z,7.94
2017-05-28T01:47:26.790Z,7.64
2017-05-28T01:50:08.401Z,7.70
2017-05-28T01:52:37.427Z,9.66
2017-05-28T01:55:06.446Z,8.58
2017-05-28T01:57:35.526Z,9.16
2017-05-28T02:06:06.015Z,7.02
2017-05-28T02:08:35.039Z,8.08
2017-05-28T02:17:05.835Z,7.22
2017-05-28T02:19:34.877Z,7.86
2017-05-28T02:22:03.984Z,7.70
2017-05-28T02:24:33.031Z,7.42
2017-05-28T02:27:02.059Z,7.40
2017-05-28T02:32:31.997Z,7.30
2017-05-28T02:35:01.026Z,6.92
2017-05-28T02:37:30.055Z,7.32
2017-05-28T02:40:13.675Z,6.92
2017-05-28T02:42:42.687Z,6.62
2017-05-28T02:45:11.757Z,7.22
2017-05-28T02:47:40.782Z,6.60
2017-05-28T02:50:09.838Z,7.60
2017-05-28T02:52:38.906Z,6.34
2017-05-28T02:58:08.985Z,7.26
2017-05-28T03:00:38.014Z,7.38
2017-05-28T03:03:07.051Z,6.86
2017-05-28T03:05:36.172Z,7.42
2017-05-28T03:11:05.957Z,10.56
2017-05-28T03:13:34.974Z,7.32
2017-05-28T03:16:04.032Z,7.08
2017-05-28T03:18:33.055Z,6.96
2017-05-28T03:21:08.527Z,7.10
2017-05-28T03:26:39.059Z,7.58
2017-05-28T03:29:08.072Z,8.16
2017-05-28T03:31:37.109Z,7.84
2017-05-28T03:34:06.177Z,7.12
2017-05-28T03:36:35.234Z,7.20
2017-05-28T03:39:10.352Z,7.94
2017-05-28T03:41:39.367Z,7.10
2017-05-28T03:44:08.393Z,6.92
2017-05-28T03:46:37.488Z,7.74
2017-05-28T03:49:06.574Z,7.52
2017-05-28T03:57:37.507Z,9.30
2017-05-28T04:00:06.601Z,11.68
2017-05-28T04:02:35.639Z,7.70
2017-05-28T04:05:04.753Z,8.98
2017-05-28T04:07:33.806Z,9.72
2017-05-28T04:10:02.844Z,8.46
2017-05-28T04:12:31.934Z,9.80
2017-05-28T04:15:00.978Z,9.34
2017-05-28T04:17:30.009Z,9.84
2017-05-28T04:20:09.525Z,11.98
2017-05-28T04:22:38.539Z,11.30
2017-05-28T04:25:07.575Z,10.48
2017-05-28T04:27:36.634Z,10.22
2017-05-28T04:30:05.708Z,11.42
2017-05-28T04:32:34.760Z,10.74
2017-05-28T04:38:05.138Z,9.38
2017-05-28T04:40:34.167Z,7.18
2017-05-28T04:43:03.182Z,8.04
2017-05-28T04:51:36.032Z,9.12
2017-05-28T04:54:05.794Z,9.92
2017-05-28T04:56:35.052Z,10.96
2017-05-28T04:59:04.122Z,6.60
2017-05-28T05:01:33.151Z,7.98
2017-05-28T05:04:02.251Z,8.46
2017-05-28T05:06:31.290Z,10.60
2017-05-28T05:09:00.310Z,9.30
2017-05-28T05:11:29.376Z,8.96
2017-05-28T05:13:58.414Z,9.08
2017-05-28T05:16:27.432Z,8.28
2017-05-28T05:18:56.507Z,9.12
2017-05-28T05:21:25.547Z,7.56
2017-05-28T05:23:54.600Z,7.28
2017-05-28T05:26:23.678Z,6.56
2017-05-28T05:31:53.880Z,7.20
2017-05-28T05:34:22.905Z,6.58
2017-05-28T05:36:51.914Z,7.10
2017-05-28T05:39:21.011Z,5.86
2017-05-28T05:41:50.048Z,5.86
2017-05-28T05:44:19.104Z,5.84
2017-05-28T05:46:48.170Z,5.98
2017-05-28T05:49:17.186Z,6.12
2017-05-28T05:51:46.235Z,6.36
2017-05-28T05:54:15.291Z,5.86
2017-05-28T05:56:44.367Z,5.48
2017-05-28T06:02:14.660Z,5.78
2017-05-28T06:04:43.695Z,5.28
2017-05-28T06:07:12.734Z,5.38
2017-05-28T06:12:42.719Z,4.70
2017-05-28T06:15:11.749Z,5.86
2017-05-28T06:17:40.827Z,5.72
2017-05-28T06:22:48.347Z,4.86
2017-05-28T06:28:19.010Z,6.10
2017-05-28T06:30:48.063Z,4.82
2017-05-28T06:33:17.110Z,5.36
2017-05-28T06:35:46.512Z,5.32
2017-05-28T06:38:15.586Z,5.48
2017-05-28T06:40:44.644Z,5.40
2017-05-28T06:43:13.728Z,4.44
2017-05-28T06:45:42.797Z,4.86
2017-05-28T06:48:11.884Z,3.92
2017-05-28T06:50:40.897Z,4.72
2017-05-28T06:56:10.970Z,4.94
2017-05-28T06:58:40.002Z,4.80
2017-05-28T07:01:09.019Z,4.14
2017-05-28T07:03:38.076Z,5.38
2017-05-28T07:09:08.146Z,4.18
2017-05-28T07:11:37.174Z,4.90
2017-05-28T07:14:06.195Z,4.80
2017-05-28T07:16:35.285Z,4.50
2017-05-28T07:19:05.258Z,4.68
2017-05-28T07:24:36.559Z,4.66
2017-05-28T07:30:06.426Z,4.10
2017-05-28T07:32:34.657Z,5.06
2017-05-28T07:35:08.895Z,4.22
2017-05-28T07:37:37.126Z,5.16
2017-05-28T07:40:08.470Z,4.66
2017-05-28T07:46:07.077Z,4.06
2017-05-28T07:52:04.929Z,4.40
2017-05-28T08:03:51.464Z,4.64
2017-05-28T08:06:19.702Z,4.58
2017-05-28T08:09:07.420Z,3.96
2017-05-28T08:11:43.514Z,4.16
2017-05-28T08:14:11.801Z,4.00
2017-05-28T08:16:40.032Z,4.20
2017-05-28T08:19:08.662Z,5.72
2017-05-28T08:25:07.117Z,3.64
2017-05-28T08:27:35.370Z,3.90
2017-05-28T08:30:03.621Z,4.12
2017-05-28T08:35:32.169Z,4.30
2017-05-28T08:38:00.783Z,4.08
2017-05-28T08:40:29.847Z,3.76
2017-05-28T08:42:58.224Z,3.98
2017-05-28T08:48:26.164Z,4.00
2017-05-28T08:50:54.419Z,4.42
2017-05-28T08:56:22.698Z,3.68
2017-05-28T09:02:08.420Z,3.34
2017-05-28T09:07:53.575Z,3.68
2017-05-28T09:10:21.791Z,3.72
2017-05-28T09:15:47.157Z,3.52
2017-05-28T09:18:15.439Z,3.36
2017-05-28T09:21:08.974Z,3.92
2017-05-28T09:24:07.480Z,3.96
2017-05-28T09:38:36.171Z,3.60
2017-05-28T09:41:10.541Z,3.42
2017-05-28T09:43:39.563Z,3.42
2017-05-28T09:46:07.845Z,4.18
2017-05-28T09:48:36.123Z,2.82
2017-05-28T09:51:04.363Z,3.22
2017-05-28T09:53:32.580Z,3.12
2017-05-28T09:56:00.842Z,2.88
2017-05-28T09:58:29.117Z,3.28
2017-05-28T10:00:57.356Z,3.88
2017-05-28T10:03:25.595Z,3.58
2017-05-28T10:05:53.868Z,3.40
2017-05-28T10:11:22.993Z,3.38
2017-05-28T10:13:51.217Z,2.90
2017-05-28T10:16:19.444Z,3.00
2017-05-28T10:18:47.709Z,2.20
2017-05-28T10:21:15.938Z,3.36
2017-05-28T10:23:44.180Z,3.24
2017-05-28T10:26:13.338Z,3.28
2017-05-28T10:28:41.557Z,2.50
2017-05-28T10:31:09.858Z,2.82
2017-05-28T10:33:38.097Z,3.32
2017-05-28T10:36:10.053Z,2.62
2017-05-28T10:38:38.306Z,2.98
2017-05-28T10:41:06.529Z,2.90
2017-05-28T10:43:34.811Z,2.60
2017-05-28T10:46:03.025Z,2.40
2017-05-28T10:51:31.363Z,2.88
2017-05-28T10:53:59.591Z,2.80
2017-05-28T10:56:27.854Z,3.06
2017-05-28T10:58:56.126Z,3.18
2017-05-28T11:01:24.391Z,2.50
2017-05-28T11:03:52.617Z,3.22
2017-05-28T11:06:20.898Z,2.88
2017-05-28T11:08:49.116Z,2.78
2017-05-28T11:11:17.342Z,2.54
2017-05-28T11:13:45.620Z,2.20
2017-05-28T11:16:13.853Z,2.16
2017-05-28T11:18:42.078Z,2.42
2017-05-28T11:21:10.335Z,3.00
2017-05-28T11:23:38.581Z,2.72
2017-05-28T11:26:06.845Z,2.84
2017-05-28T11:28:35.838Z,2.46
2017-05-28T11:31:10.158Z,2.42
2017-05-28T11:33:38.441Z,2.80
2017-05-28T11:36:06.689Z,2.20
2017-05-28T11:38:34.928Z,2.50
2017-05-28T11:41:03.242Z,2.52
2017-05-28T11:46:31.803Z,2.68
2017-05-28T11:49:09.835Z,3.02
2017-05-28T11:51:38.106Z,2.78
2017-05-28T11:54:06.348Z,2.92
2017-05-28T11:56:34.625Z,2.84
2017-05-28T11:59:08.614Z,2.62
2017-05-28T12:01:36.913Z,2.50
2017-05-28T12:04:05.151Z,2.30
2017-05-28T12:06:33.382Z,2.34
2017-05-28T12:09:01.695Z,2.30
2017-05-28T12:11:29.928Z,2.32
2017-05-28T12:13:58.165Z,2.50
2017-05-28T12:19:26.290Z,2.50
2017-05-28T12:21:54.513Z,2.40
2017-05-28T12:24:22.778Z,2.46
2017-05-28T12:27:10.483Z,2.30
2017-05-28T12:29:38.758Z,2.50
2017-05-28T12:32:06.979Z,2.08
2017-05-28T12:34:35.223Z,2.44
2017-05-28T12:37:03.493Z,2.14
2017-05-28T12:39:31.743Z,2.78
2017-05-28T12:41:59.971Z,2.62
2017-05-28T12:44:28.229Z,2.36
2017-05-28T12:46:56.454Z,2.02
2017-05-28T12:49:24.724Z,2.78
2017-05-28T12:51:53.020Z,2.20
2017-05-28T12:57:20.862Z,2.30
2017-05-28T12:59:49.086Z,2.02
2017-05-28T13:02:17.363Z,2.40
2017-05-28T13:04:45.647Z,2.48
2017-05-28T13:07:13.880Z,2.90
2017-05-28T13:09:42.125Z,2.66
2017-05-28T13:12:11.161Z,2.10
2017-05-28T13:14:39.389Z,2.14
2017-05-28T13:17:07.624Z,2.30
2017-05-28T13:19:35.876Z,2.24
2017-05-28T13:22:10.689Z,2.34
2017-05-28T13:24:38.913Z,2.50
2017-05-28T13:27:07.198Z,2.46
2017-05-28T13:29:35.431Z,2.28
2017-05-28T13:32:03.675Z,2.72
2017-05-28T13:34:31.943Z,2.56
2017-05-28T13:37:00.186Z,2.62
2017-05-28T13:39:28.436Z,2.30
2017-05-28T13:41:56.714Z,2.14
2017-05-28T13:44:24.938Z,2.42
2017-05-28T13:46:53.180Z,2.14
2017-05-28T13:52:21.526Z,2.32
2017-05-28T13:54:49.791Z,2.50
2017-05-28T13:57:18.031Z,2.14
2017-05-28T13:59:46.301Z,2.26
2017-05-28T14:02:14.531Z,2.28
2017-05-28T14:04:42.759Z,1.86
2017-05-28T14:10:10.476Z,2.30
2017-05-28T14:12:38.694Z,2.24
2017-05-28T14:15:06.955Z,2.68
2017-05-28T14:20:37.238Z,2.86
2017-05-28T14:23:05.528Z,2.16
2017-05-28T14:25:33.753Z,2.46
2017-05-28T14:28:01.978Z,2.36
2017-05-28T14:30:30.268Z,2.10
2017-05-28T14:32:58.486Z,2.06
2017-05-28T14:35:26.728Z,2.68
2017-05-28T14:37:55.000Z,1.98
2017-05-28T14:40:23.226Z,3.06
2017-05-28T14:42:51.448Z,2.46
2017-05-28T14:48:19.968Z,2.04
2017-05-28T14:50:48.190Z,2.10
2017-05-28T14:53:16.479Z,2.70
2017-05-28T14:56:08.001Z,2.38
2017-05-28T14:58:36.290Z,2.30
2017-05-28T15:01:11.061Z,2.60
2017-05-28T15:03:39.347Z,2.50
2017-05-28T15:06:07.580Z,2.00
2017-05-28T15:08:35.806Z,2.70
2017-05-28T15:11:04.084Z,2.68
2017-05-28T15:13:32.320Z,2.18
2017-05-28T15:16:00.594Z,2.34
2017-05-28T15:18:28.819Z,2.70
2017-05-28T15:20:57.059Z,2.18
2017-05-28T15:23:25.386Z,2.36
2017-05-28T15:25:53.632Z,2.50
2017-05-28T15:28:21.854Z,2.40
2017-05-28T15:30:50.133Z,2.70
2017-05-28T15:33:18.373Z,1.92
2017-05-28T15:35:46.621Z,2.30
2017-05-28T15:38:14.892Z,2.30
2017-05-28T15:40:43.912Z,2.60
2017-05-28T15:43:12.182Z,2.44
2017-05-28T15:45:40.414Z,2.16
2017-05-28T15:48:08.634Z,2.78
2017-05-28T15:50:36.928Z,2.60
2017-05-28T15:53:05.930Z,2.94
2017-05-28T15:55:34.149Z,2.38
2017-05-28T15:58:02.418Z,2.42
2017-05-28T16:00:30.666Z,2.60
2017-05-28T16:02:58.915Z,2.40
2017-05-28T16:05:27.224Z,2.72
2017-05-28T16:07:55.450Z,2.32
2017-05-28T16:10:23.670Z,2.86
2017-05-28T16:12:51.976Z,2.54
2017-05-28T16:15:20.201Z,2.68
2017-05-28T16:17:48.434Z,2.66
2017-05-28T16:20:16.718Z,2.64
2017-05-28T16:23:07.952Z,2.78
2017-05-28T16:25:36.227Z,2.62
2017-05-28T16:28:10.814Z,2.68
2017-05-28T16:30:39.100Z,2.14
2017-05-28T16:36:06.980Z,3.20
2017-05-28T16:38:35.224Z,3.12
2017-05-28T16:41:03.449Z,2.86
2017-05-28T16:43:31.718Z,2.84
2017-05-28T16:45:59.958Z,2.78
2017-05-28T16:48:28.187Z,2.74
2017-05-28T16:50:56.458Z,2.20
2017-05-28T16:53:24.695Z,2.38
2017-05-28T16:56:06.063Z,2.92
2017-05-28T16:58:34.280Z,2.54
2017-05-28T17:01:02.544Z,2.62
2017-05-28T17:03:30.792Z,3.02
2017-05-28T17:06:08.854Z,2.86
2017-05-28T17:08:37.104Z,2.88
2017-05-28T17:11:05.344Z,3.34
2017-05-28T17:13:33.607Z,3.04
2017-05-28T17:16:01.831Z,2.86
2017-05-28T17:18:30.058Z,2.36
2017-05-28T17:20:59.549Z,2.60
2017-05-28T17:23:28.551Z,2.72
2017-05-28T17:26:09.510Z,2.64
2017-05-28T17:28:37.793Z,2.82
2017-05-28T17:31:06.021Z,2.28
2017-05-28T17:33:40.845Z,2.98
2017-05-28T17:36:09.078Z,2.90
2017-05-28T17:38:43.997Z,2.78
2017-05-28T17:41:12.290Z,3.02
2017-05-28T17:43:40.521Z,2.60
2017-05-28T17:46:09.047Z,2.50
2017-05-28T17:48:58.027Z,2.36
2017-05-28T17:51:26.278Z,2.40
2017-05-28T17:53:54.512Z,3.02
2017-05-28T17:56:23.559Z,2.90
2017-05-28T17:58:51.776Z,3.06
2017-05-28T18:01:20.002Z,2.18
2017-05-28T18:03:48.270Z,2.24
2017-05-28T18:06:16.509Z,2.70
2017-05-28T18:08:44.741Z,2.86
2017-05-28T18:11:12.993Z,2.18
2017-05-28T18:13:41.225Z,2.58
2017-05-28T18:19:10.354Z,2.72
2017-05-28T18:21:38.592Z,2.80
2017-05-28T18:24:06.818Z,2.96
2017-05-28T18:26:35.097Z,3.00
2017-05-28T18:29:09.574Z,2.56
2017-05-28T18:31:37.887Z,2.62
2017-05-28T18:34:09.249Z,2.96
2017-05-28T18:36:37.545Z,2.62
2017-05-28T18:39:05.766Z,3.26
2017-05-28T18:41:33.998Z,2.92
2017-05-28T18:44:09.042Z,3.04
2017-05-28T18:46:37.260Z,2.62
2017-05-28T18:49:05.549Z,3.00
2017-05-28T18:51:33.784Z,2.90
2017-05-28T18:54:02.010Z,3.12
2017-05-28T18:56:31.514Z,3.64
2017-05-28T18:59:09.303Z,3.28
2017-05-28T19:01:37.606Z,2.68
2017-05-28T19:04:05.851Z,3.16
2017-05-28T19:06:34.081Z,2.72
2017-05-28T19:09:09.322Z,2.88
2017-05-28T19:14:37.692Z,2.32
2017-05-28T19:17:09.222Z,2.78
2017-05-28T19:22:37.494Z,3.36
2017-05-28T19:25:05.740Z,3.26
2017-05-28T19:27:33.980Z,2.70
2017-05-28T19:30:02.261Z,3.40
2017-05-28T19:32:30.517Z,3.28
2017-05-28T19:35:11.282Z,3.38
2017-05-28T19:37:39.505Z,2.86
2017-05-28T19:40:07.830Z,2.90
2017-05-28T19:42:36.110Z,2.68
2017-05-28T19:45:10.243Z,2.98
2017-05-28T19:47:39.298Z,3.28
2017-05-28T19:50:10.898Z,3.34
2017-05-28T19:52:40.728Z,3.88
2017-05-28T19:58:09.632Z,3.92
2017-05-28T20:00:37.997Z,3.16
2017-05-28T20:03:06.240Z,3.48
2017-05-28T20:05:34.519Z,3.70
2017-05-28T20:11:02.780Z,3.72
2017-05-28T20:13:31.018Z,4.66
2017-05-28T20:15:59.246Z,4.96
2017-05-28T20:18:27.536Z,3.82
2017-05-28T20:21:08.686Z,4.10
2017-05-28T20:26:36.418Z,3.44
2017-05-28T20:29:10.582Z,3.20
2017-05-28T20:31:38.859Z,3.60
2017-05-28T20:34:07.111Z,3.42
2017-05-28T20:36:35.337Z,3.62
2017-05-28T20:39:03.620Z,3.76
2017-05-28T20:44:32.162Z,3.28
2017-05-28T20:47:00.388Z,3.80
2017-05-28T20:49:28.633Z,3.40
2017-05-28T20:51:56.973Z,4.38
2017-05-28T20:57:25.446Z,3.96
2017-05-28T20:59:53.674Z,3.22
2017-05-28T21:02:21.921Z,3.74
2017-05-28T21:10:49.926Z,4.20
2017-05-28T21:13:18.183Z,3.22
2017-05-28T21:15:46.416Z,3.58
2017-05-28T21:18:14.714Z,3.30
2017-05-28T21:20:42.944Z,3.00
2017-05-28T21:23:11.185Z,3.52
2017-05-28T21:25:39.548Z,3.72
2017-05-28T21:28:07.771Z,3.52
2017-05-28T21:30:36.013Z,3.34
2017-05-28T21:36:04.650Z,3.92
2017-05-28T21:38:32.889Z,3.86
2017-05-28T21:41:01.118Z,3.72
2017-05-28T21:43:29.503Z,3.70
2017-05-28T21:45:57.719Z,3.06
2017-05-28T21:48:25.943Z,3.08
2017-05-28T21:53:54.169Z,3.12
2017-05-28T21:56:22.394Z,3.60
2017-05-28T21:58:50.618Z,3.32
2017-05-28T22:01:19.006Z,3.26
2017-05-28T22:03:47.228Z,3.60
2017-05-28T22:06:15.453Z,2.92
2017-05-28T22:08:43.735Z,3.02
2017-05-28T22:11:11.958Z,3.02
2017-05-28T22:13:40.954Z,4.62
2017-05-28T22:16:09.218Z,3.32
2017-05-28T22:18:37.475Z,3.80
2017-05-28T22:21:05.710Z,4.02
2017-05-28T22:26:33.923Z,3.24
2017-05-28T22:29:09.934Z,3.62
2017-05-28T22:34:15.835Z,3.30
2017-05-28T22:36:44.101Z,3.34
2017-05-28T22:39:12.325Z,2.98
2017-05-28T22:41:40.552Z,3.30
2017-05-28T22:44:08.818Z,3.70
2017-05-28T22:46:37.050Z,3.16
2017-05-28T22:49:05.280Z,3.50
2017-05-28T22:51:33.559Z,2.84
2017-05-28T22:54:01.781Z,2.64
2017-05-28T22:59:30.011Z,3.20
2017-05-28T23:01:58.247Z,2.80
2017-05-28T23:04:26.473Z,2.94
2017-05-28T23:06:54.737Z,3.18
2017-05-28T23:09:22.957Z,3.52
2017-05-28T23:12:10.888Z,2.92
2017-05-28T23:15:08.713Z,3.30
2017-05-28T23:17:36.982Z,3.68
2017-05-28T23:20:11.145Z,3.50
2017-05-28T23:22:39.581Z,3.32
2017-05-28T23:25:10.729Z,3.10
2017-05-28T23:28:08.828Z,3.44
2017-05-28T23:30:37.064Z,3.30
2017-05-28T23:33:08.847Z,3.14
2017-05-28T23:35:37.093Z,3.26
2017-05-28T23:38:05.319Z,3.22
2017-05-28T23:40:33.595Z,3.30
2017-05-28T23:43:09.187Z,2.56
2017-05-28T23:45:37.458Z,3.40
2017-05-28T23:48:05.677Z,2.86
2017-05-28T23:50:33.905Z,2.80
2017-05-28T23:53:09.429Z,3.14
2017-05-28T23:55:37.675Z,3.20
2017-05-28T23:58:05.917Z,3.46
